createdAt,value
2022-08-05T00:01:20.176Z,50.19
2022-08-05T00:04:12.497Z,50.00
2022-08-05T00:06:58.339Z,50.01
2022-08-05T00:09:44.045Z,50.58
2022-08-05T00:12:29.025Z,51.53
2022-08-05T00:15:54.031Z,50.51
2022-08-05T00:18:21.570Z,49.41
2022-08-05T00:21:08.432Z,48.71
2022-08-05T00:24:05.063Z,49.35
2022-08-05T00:26:56.610Z,50.49
2022-08-05T00:29:43.288Z,51.19
2022-08-05T00:32:28.165Z,50.61
2022-08-05T00:35:13.051Z,51.28
2022-08-05T00:37:57.745Z,50.76
2022-08-05T00:40:52.007Z,50.59
2022-08-05T00:43:47.336Z,49.53
2022-08-05T00:46:42.581Z,49.14
2022-08-05T00:49:32.386Z,48.91
2022-08-05T00:52:17.667Z,49.06
2022-08-05T00:55:02.391Z,49.68
2022-08-05T00:57:58.621Z,50.42
2022-08-05T01:00:44.161Z,50.98
2022-08-05T01:03:30.833Z,50.43
2022-08-05T01:06:18.609Z,50.33
2022-08-05T01:09:04.081Z,49.86
2022-08-05T01:11:51.764Z,48.91
2022-08-05T01:14:36.942Z,49.13
2022-08-05T01:17:22.264Z,48.91
2022-08-05T01:20:07.610Z,48.80
2022-08-05T01:22:52.776Z,48.26
2022-08-05T01:25:42.147Z,48.42
2022-08-05T01:28:39.408Z,48.30
2022-08-05T01:31:24.329Z,47.76
2022-08-05T01:34:09.975Z,48.53
2022-08-05T01:36:55.752Z,49.78
2022-08-05T01:39:47.169Z,51.15
2022-08-05T01:42:32.661Z,51.61
2022-08-05T01:45:18.534Z,52.47
2022-08-05T01:48:05.275Z,52.34
2022-08-05T01:50:55.397Z,53.25
2022-08-05T01:53:57.251Z,53.61
2022-08-05T01:58:10.981Z,52.92
2022-08-05T01:59:48.545Z,52.17
2022-08-05T02:02:33.240Z,51.67
2022-08-05T02:05:20.106Z,52.56
2022-08-05T02:08:08.353Z,51.74
2022-08-05T02:10:53.069Z,52.18
2022-08-05T02:13:53.100Z,52.27
2022-08-05T02:16:38.182Z,52.10
2022-08-05T02:19:24.606Z,51.59
2022-08-05T02:22:17.446Z,51.20
2022-08-05T02:25:12.494Z,51.50
2022-08-05T02:28:00.328Z,51.95
2022-08-05T02:30:51.812Z,52.17
2022-08-05T02:33:39.778Z,51.27
2022-08-05T02:36:24.676Z,51.28
2022-08-05T02:39:12.648Z,51.38
2022-08-05T02:42:01.089Z,51.35
2022-08-05T02:44:46.522Z,51.83
2022-08-05T02:47:58.644Z,51.53
2022-08-05T02:50:36.315Z,51.29
2022-08-05T02:53:21.466Z,51.60
2022-08-05T02:56:06.325Z,51.94
2022-08-05T02:58:52.742Z,51.32
2022-08-05T03:01:37.458Z,51.36
2022-08-05T03:04:24.298Z,50.74
2022-08-05T03:07:09.561Z,50.82
2022-08-05T03:10:14.542Z,51.82
2022-08-05T03:15:43.277Z,51.35
2022-08-05T03:18:29.946Z,51.68
2022-08-05T03:21:15.555Z,51.01
2022-08-05T03:24:02.451Z,51.29
2022-08-05T03:26:49.376Z,51.52
2022-08-05T03:29:45.407Z,51.68
2022-08-05T03:32:39.384Z,51.35
2022-08-05T03:35:24.732Z,50.79
2022-08-05T03:38:09.524Z,50.60
2022-08-05T03:40:54.285Z,50.91
2022-08-05T03:44:09.365Z,50.94
2022-08-05T03:46:47.307Z,50.24
2022-08-05T03:49:51.342Z,50.32
2022-08-05T03:54:59.302Z,50.64
2022-08-05T03:56:05.518Z,50.13
2022-08-05T03:58:46.597Z,50.68
2022-08-05T04:01:32.320Z,50.11
2022-08-05T04:04:21.126Z,50.36
2022-08-05T04:07:06.413Z,49.87
2022-08-05T04:09:53.526Z,49.84
2022-08-05T04:15:24.518Z,51.11
2022-08-05T04:18:11.248Z,50.68
2022-08-05T04:21:00.858Z,50.95
2022-08-05T04:23:57.362Z,51.32
2022-08-05T04:26:50.863Z,51.65
2022-08-05T04:29:36.260Z,51.94
2022-08-05T04:32:30.854Z,52.04
2022-08-05T04:35:17.590Z,52.71
2022-08-05T04:38:06.826Z,52.43
2022-08-05T04:40:51.669Z,52.25
2022-08-05T04:43:36.553Z,51.50
2022-08-05T04:46:27.833Z,51.59
2022-08-05T04:49:14.785Z,51.60
2022-08-05T04:52:00.481Z,51.29
2022-08-05T04:54:45.703Z,51.72
2022-08-05T04:57:37.178Z,51.79
2022-08-05T05:00:23.255Z,52.06
2022-08-05T05:03:09.010Z,52.07
2022-08-05T05:06:39.382Z,52.46
2022-08-05T05:08:58.938Z,51.71
2022-08-05T05:11:55.597Z,51.91
2022-08-05T05:14:49.130Z,52.80
2022-08-05T05:17:56.193Z,52.84
2022-08-05T05:20:39.511Z,52.56
2022-08-05T05:23:24.698Z,51.44
2022-08-05T05:26:09.523Z,51.79
2022-08-05T05:28:54.666Z,51.55
2022-08-05T05:31:41.784Z,50.89
2022-08-05T05:34:31.646Z,50.38
2022-08-05T05:37:16.649Z,49.92
2022-08-05T05:40:01.848Z,48.48
2022-08-05T05:42:47.076Z,47.08
2022-08-05T05:45:32.289Z,46.85
2022-08-05T05:48:17.117Z,45.97
2022-08-05T05:51:14.760Z,44.16
2022-08-05T05:54:00.658Z,44.21
2022-08-05T05:56:45.321Z,44.40
2022-08-05T05:59:32.182Z,43.29
2022-08-05T06:02:37.666Z,39.45
2022-08-05T06:05:22.879Z,34.11
2022-08-05T06:08:07.727Z,30.23
2022-08-05T06:10:54.439Z,27.62
2022-08-05T06:13:40.691Z,30.21
2022-08-05T06:16:37.265Z,33.61
2022-08-05T06:19:26.206Z,35.42
2022-08-05T06:22:19.184Z,36.12
2022-08-05T06:25:24.418Z,36.78
2022-08-05T06:28:20.989Z,36.65
2022-08-05T06:31:10.883Z,36.98
2022-08-05T06:34:06.398Z,35.23
2022-08-05T06:36:57.602Z,34.36
2022-08-05T08:24:01.239Z,35.12
2022-08-05T08:26:46.662Z,33.61
2022-08-05T08:30:05.546Z,34.64
2022-08-05T08:32:41.677Z,33.79
2022-08-05T08:35:26.833Z,34.39
2022-08-05T08:38:35.858Z,33.37
2022-08-05T08:41:26.361Z,34.54
2022-08-05T08:45:23.346Z,33.95
2022-08-05T08:48:07.112Z,33.63
2022-08-05T08:51:07.588Z,34.25
2022-08-05T08:53:45.168Z,35.15
2022-08-05T08:56:30.362Z,34.34
2022-08-05T08:59:19.714Z,32.95
2022-08-05T09:02:06.029Z,34.66
2022-08-05T09:05:16.270Z,34.62
2022-08-05T09:07:58.794Z,34.27
2022-08-05T09:10:43.893Z,34.07
2022-08-05T09:18:22.124Z,33.88
2022-08-05T09:21:11.797Z,34.06
2022-08-05T09:24:06.763Z,32.56
2022-08-05T09:26:52.079Z,33.44
2022-08-05T09:29:37.257Z,32.41
2022-08-05T09:32:45.996Z,32.13
2022-08-05T09:35:31.600Z,31.25
2022-08-05T09:38:27.618Z,30.94
2022-08-05T09:41:16.239Z,30.49
2022-08-05T09:44:01.412Z,29.90
2022-08-05T09:46:51.945Z,30.51
2022-08-05T09:50:01.297Z,29.19
2022-08-05T09:52:47.603Z,29.22
2022-08-05T09:55:56.795Z,29.74
2022-08-05T09:58:42.797Z,29.38
2022-08-05T10:01:32.390Z,29.18
2022-08-05T10:04:18.449Z,29.50
2022-08-05T10:07:19.570Z,30.32
2022-08-05T10:10:15.144Z,29.46
2022-08-05T10:13:00.995Z,31.15
2022-08-05T10:15:45.762Z,31.10
2022-08-05T10:18:32.054Z,31.05
2022-08-05T10:21:17.416Z,31.70
2022-08-05T10:24:10.590Z,31.09
2022-08-05T10:26:56.122Z,30.33
2022-08-05T10:30:06.804Z,31.41
2022-08-05T10:32:59.730Z,31.46
2022-08-05T10:35:59.009Z,31.87
2022-08-05T10:38:45.116Z,32.12
2022-08-05T10:41:46.874Z,31.93
2022-08-05T10:44:32.399Z,32.29
2022-08-05T10:47:25.936Z,32.05
2022-08-05T10:50:32.863Z,31.42
2022-08-05T10:53:17.590Z,31.70
2022-08-05T10:56:05.421Z,30.86
2022-08-05T10:59:12.623Z,29.68
2022-08-05T11:02:34.402Z,28.73
2022-08-05T11:05:18.200Z,29.12
2022-08-05T11:08:12.698Z,29.75
2022-08-05T11:11:16.543Z,29.72
2022-08-05T11:14:02.023Z,29.89
2022-08-05T11:16:57.955Z,29.30
2022-08-05T11:20:17.546Z,29.69
2022-08-05T11:22:49.798Z,29.94
2022-08-05T11:26:05.099Z,29.40
2022-08-05T11:28:40.299Z,30.02
2022-08-05T11:31:54.541Z,29.83
2022-08-05T11:34:29.786Z,30.37
2022-08-05T11:38:30.623Z,29.60
2022-08-05T11:40:23.682Z,30.24
2022-08-05T11:43:10.869Z,29.59
2022-08-05T11:46:27.521Z,29.31
2022-08-05T11:49:00.368Z,31.19
2022-08-05T11:51:49.722Z,31.48
2022-08-05T11:54:35.085Z,31.58
2022-08-05T11:57:25.169Z,30.56
2022-08-05T12:00:11.182Z,31.81
2022-08-05T12:02:57.468Z,32.10
2022-08-05T12:05:43.642Z,32.26
2022-08-05T12:08:28.540Z,33.40
2022-08-05T12:11:20.321Z,32.96
2022-08-05T12:14:05.686Z,32.51
2022-08-05T12:16:51.933Z,32.07
2022-08-05T12:20:16.694Z,32.17
2022-08-05T12:22:41.940Z,32.31
2022-08-05T12:25:31.108Z,32.23
2022-08-05T12:28:15.847Z,33.71
2022-08-05T12:31:02.384Z,37.32
2022-08-05T12:33:47.354Z,36.30
2022-08-05T12:36:33.185Z,37.70
2022-08-05T12:39:18.348Z,36.67
2022-08-05T12:42:03.125Z,39.12
2022-08-05T12:44:48.000Z,37.36
2022-08-05T12:47:33.185Z,39.41
2022-08-05T12:50:19.804Z,40.12
2022-08-05T12:53:04.827Z,40.61
2022-08-05T12:55:49.643Z,40.97
2022-08-05T12:58:50.692Z,40.74
2022-08-05T13:02:01.009Z,39.90
2022-08-05T13:04:54.471Z,38.23
2022-08-05T13:10:50.751Z,36.88
2022-08-05T13:14:04.875Z,35.12
2022-08-05T13:16:41.127Z,34.87
2022-08-05T13:19:26.237Z,34.42
2022-08-05T13:22:12.180Z,34.55
2022-08-05T13:25:00.369Z,34.40
2022-08-05T13:27:46.034Z,34.35
2022-08-05T13:30:36.966Z,33.66
2022-08-05T13:34:23.085Z,33.69
2022-08-05T13:36:29.215Z,33.59
2022-08-05T13:39:24.451Z,32.83
2022-08-05T13:42:18.769Z,32.70
2022-08-05T13:45:06.335Z,33.75
2022-08-05T13:48:09.162Z,33.48
2022-08-05T13:50:55.814Z,33.79
2022-08-05T13:53:47.756Z,33.23
2022-08-05T13:56:33.563Z,36.00
2022-08-05T13:59:19.452Z,34.83
2022-08-05T14:02:06.882Z,36.26
2022-08-05T14:04:52.173Z,35.81
2022-08-05T14:08:00.228Z,34.52
2022-08-05T14:10:41.841Z,37.07
2022-08-05T14:13:26.721Z,37.22
2022-08-05T14:16:19.142Z,35.40
2022-08-05T14:19:04.408Z,34.06
2022-08-05T14:22:09.439Z,33.48
2022-08-05T14:24:54.709Z,34.60
2022-08-05T14:27:47.265Z,34.98
2022-08-05T14:30:32.317Z,32.35
2022-08-05T14:33:22.772Z,31.95
2022-08-05T14:36:08.603Z,32.34
2022-08-05T14:38:53.347Z,31.06
2022-08-05T14:41:39.164Z,31.33
2022-08-05T14:44:33.482Z,31.34
2022-08-05T14:48:03.961Z,32.25
2022-08-05T14:50:23.304Z,31.96
2022-08-05T14:53:10.508Z,31.41
2022-08-05T14:55:55.855Z,30.87
2022-08-05T14:58:47.560Z,31.38
2022-08-05T15:01:47.947Z,31.54
2022-08-05T15:04:34.678Z,31.08
2022-08-05T15:08:12.422Z,30.31
2022-08-05T15:10:28.623Z,30.19
2022-08-05T15:13:13.901Z,30.76
2022-08-05T15:15:58.758Z,32.45
2022-08-05T15:18:43.514Z,34.01
2022-08-05T15:21:32.375Z,35.06
2022-08-05T15:24:20.289Z,35.19
2022-08-05T15:27:09.062Z,36.02
2022-08-05T15:29:56.735Z,33.03
2022-08-05T15:32:41.693Z,32.68
2022-08-05T15:35:26.499Z,31.52
2022-08-05T15:38:33.918Z,32.14
2022-08-05T15:41:23.919Z,31.68
2022-08-05T15:44:09.562Z,31.82
2022-08-05T15:46:55.827Z,32.31
2022-08-05T15:49:56.828Z,32.72
2022-08-05T15:52:52.919Z,32.65
2022-08-05T15:56:02.960Z,32.84
2022-08-05T15:58:44.149Z,31.64
2022-08-05T16:01:29.965Z,32.49
2022-08-05T16:04:25.455Z,33.65
2022-08-05T16:07:10.955Z,34.01
2022-08-05T16:09:55.999Z,33.99
2022-08-05T16:12:40.711Z,33.95
2022-08-05T16:15:32.517Z,36.33
2022-08-05T16:18:18.758Z,36.34
2022-08-05T16:21:05.073Z,37.34
2022-08-05T16:23:53.789Z,37.76
2022-08-05T16:26:40.462Z,38.08
2022-08-05T16:29:28.802Z,38.14
2022-08-05T16:32:16.105Z,39.09
2022-08-05T16:35:00.709Z,35.67
2022-08-05T16:38:13.696Z,34.40
2022-08-05T16:40:55.730Z,36.32
2022-08-05T16:43:45.426Z,35.32
2022-08-05T16:46:30.101Z,35.01
2022-08-05T16:49:16.847Z,35.37
2022-08-05T16:52:01.685Z,35.52
2022-08-05T16:54:47.925Z,36.28
2022-08-05T16:57:53.060Z,37.10
2022-08-05T17:00:38.014Z,36.97
2022-08-05T17:03:24.922Z,37.48
2022-08-05T17:06:12.931Z,38.09
2022-08-05T17:09:01.243Z,40.17
2022-08-05T17:11:49.031Z,42.66
2022-08-05T17:14:38.127Z,43.53
2022-08-05T17:17:23.407Z,45.18
2022-08-05T17:20:27.501Z,44.71
2022-08-05T17:24:03.683Z,44.82
2022-08-05T17:26:18.432Z,44.70
2022-08-05T17:29:07.308Z,44.21
2022-08-05T17:31:57.321Z,45.93
2022-08-05T17:34:44.113Z,46.64
2022-08-05T17:37:41.807Z,47.57
2022-08-05T17:40:30.145Z,47.94
2022-08-05T17:43:16.306Z,48.52
2022-08-05T17:46:02.818Z,48.83
2022-08-05T17:48:49.563Z,48.92
2022-08-05T17:51:40.068Z,48.53
2022-08-05T17:54:25.392Z,48.23
2022-08-05T17:57:12.120Z,48.05
2022-08-05T18:00:03.292Z,48.50
2022-08-05T18:02:50.327Z,49.04
2022-08-05T18:05:36.353Z,49.95
2022-08-05T18:08:21.335Z,51.00
2022-08-05T18:11:06.114Z,51.00
2022-08-05T18:13:51.416Z,50.86
2022-08-05T18:16:51.306Z,52.05
2022-08-05T18:19:37.488Z,51.73
2022-08-05T18:22:46.158Z,51.37
2022-08-05T18:25:34.430Z,51.87
2022-08-05T18:28:21.804Z,51.67
2022-08-05T18:31:06.937Z,51.67
2022-08-05T18:33:53.837Z,52.65
2022-08-05T18:36:43.636Z,53.65
2022-08-05T18:40:31.032Z,55.47
2022-08-05T18:42:33.562Z,55.45
2022-08-05T18:45:18.695Z,54.36
2022-08-05T18:48:04.537Z,54.88
2022-08-05T18:50:49.376Z,54.98
2022-08-05T18:53:34.640Z,56.25
2022-08-05T18:56:27.776Z,56.21
2022-08-05T18:59:42.148Z,56.54
2022-08-05T19:02:26.884Z,56.45
2022-08-05T19:06:11.727Z,56.51
2022-08-05T19:08:18.819Z,56.72
2022-08-05T19:11:05.087Z,56.57
2022-08-05T19:14:00.621Z,55.83
2022-08-05T19:16:47.435Z,56.35
2022-08-05T19:19:32.447Z,56.11
2022-08-05T19:22:27.590Z,56.79
2022-08-05T19:25:29.669Z,55.62
2022-08-05T19:28:15.662Z,56.32
2022-08-05T19:31:01.147Z,56.74
2022-08-05T19:33:48.358Z,56.92
2022-08-05T19:36:42.547Z,56.55
2022-08-05T19:39:28.311Z,57.68
2022-08-05T19:42:13.599Z,56.74
2022-08-05T19:45:01.435Z,59.00
2022-08-05T19:47:46.637Z,60.18
2022-08-05T19:50:31.382Z,60.63
2022-08-05T19:53:17.159Z,60.70
2022-08-05T19:56:32.368Z,61.60
2022-08-05T19:59:51.257Z,61.74
2022-08-05T20:02:24.969Z,62.96
2022-08-05T20:05:16.411Z,63.77
2022-08-05T20:08:09.472Z,63.69
2022-08-05T20:10:55.098Z,63.15
2022-08-05T20:13:54.759Z,63.14
2022-08-05T20:16:44.207Z,63.83
2022-08-05T20:19:36.337Z,63.11
2022-08-05T20:22:27.264Z,63.54
2022-08-05T20:25:12.561Z,63.01
2022-08-05T20:27:57.593Z,62.17
2022-08-05T20:30:42.627Z,63.46
2022-08-05T20:33:27.450Z,62.49
2022-08-05T20:36:17.871Z,61.19
2022-08-05T20:39:02.965Z,61.14
2022-08-05T20:41:48.324Z,62.33
2022-08-05T20:44:37.732Z,62.31
2022-08-05T20:47:31.960Z,62.84
2022-08-05T20:50:17.012Z,63.85
2022-08-05T20:53:03.247Z,63.29
2022-08-05T20:56:07.983Z,63.53
2022-08-05T20:58:52.866Z,62.93
2022-08-05T21:01:38.744Z,63.75
2022-08-05T21:04:23.954Z,64.64
2022-08-05T21:07:12.200Z,64.81
2022-08-05T21:09:57.629Z,66.64
2022-08-05T21:13:09.116Z,64.87
2022-08-05T21:15:51.055Z,64.37
2022-08-05T21:18:36.514Z,64.28
2022-08-05T21:21:24.367Z,64.66
2022-08-05T21:24:09.730Z,65.03
2022-08-05T21:26:58.859Z,63.72
2022-08-05T21:29:48.534Z,64.02
2022-08-05T21:32:35.749Z,61.84
2022-08-05T21:35:30.297Z,62.97
2022-08-05T21:38:25.313Z,63.46
2022-08-05T21:41:12.019Z,64.36
2022-08-05T21:44:03.428Z,64.57
2022-08-05T21:46:48.758Z,64.63
2022-08-05T21:49:56.841Z,64.99
2022-08-05T21:52:38.338Z,63.70
2022-08-05T21:55:43.028Z,62.88
2022-08-05T21:58:42.161Z,62.68
2022-08-05T22:01:27.441Z,62.74
2022-08-05T22:04:13.340Z,62.84
2022-08-05T22:06:58.470Z,61.85
2022-08-05T22:09:45.971Z,62.00
2022-08-05T22:12:31.374Z,62.37
2022-08-05T22:15:16.395Z,62.74
2022-08-05T22:18:01.731Z,61.10
2022-08-05T22:20:46.868Z,62.48
2022-08-05T22:24:03.359Z,60.82
2022-08-05T22:26:41.791Z,62.58
2022-08-05T22:29:35.337Z,60.50
2022-08-05T22:32:20.850Z,61.58
2022-08-05T22:35:08.000Z,62.08
2022-08-05T22:37:58.940Z,61.21
2022-08-05T22:40:49.309Z,59.95
2022-08-05T22:43:36.604Z,61.41
2022-08-05T22:46:23.516Z,63.91
2022-08-05T22:49:12.529Z,62.98
2022-08-05T22:52:23.040Z,63.39
2022-08-05T22:55:18.206Z,62.09
2022-08-05T22:58:05.035Z,63.51
2022-08-05T23:00:50.485Z,62.45
2022-08-05T23:03:58.730Z,63.47
2022-08-05T23:06:40.766Z,64.29
2022-08-05T23:09:53.491Z,63.98
2022-08-05T23:12:33.295Z,62.98
2022-08-05T23:15:18.574Z,63.47
2022-08-05T23:18:11.489Z,62.24
2022-08-05T23:21:01.105Z,61.92
2022-08-05T23:23:45.958Z,61.80
2022-08-05T23:26:31.333Z,61.37
2022-08-05T23:32:22.948Z,61.01
2022-08-05T23:35:08.097Z,60.63
2022-08-05T23:37:52.859Z,60.57
2022-08-05T23:40:39.815Z,60.43
2022-08-05T23:44:03.565Z,60.41
2022-08-05T23:46:32.185Z,61.12
2022-08-05T23:49:23.814Z,60.60
2022-08-05T23:52:18.766Z,60.99
2022-08-05T23:55:05.415Z,61.50
2022-08-05T23:57:52.857Z,62.32
